sensor_id;sensor_type;location;lat;lon;timestamp;P1;durP1;ratioP1;P2;durP2;ratioP2
37305;SDS011;23193;42.656;21.170;2022-09-12T00:01:06;12.15;;;7.32;;
37305;SDS011;23193;42.656;21.170;2022-09-12T00:03:32;9.20;;;7.57;;
37305;SDS011;23193;42.656;21.170;2022-09-12T00:05:58;9.82;;;7.25;;
37305;SDS011;23193;42.656;21.170;2022-09-12T00:08:25;10.05;;;7.63;;
37305;SDS011;23193;42.656;21.170;2022-09-12T00:10:51;13.40;;;7.95;;
37305;SDS011;23193;42.656;21.170;2022-09-12T00:13:17;9.77;;;8.18;;
37305;SDS011;23193;42.656;21.170;2022-09-12T00:15:43;21.15;;;10.60;;
37305;SDS011;23193;42.656;21.170;2022-09-12T00:18:11;11.60;;;9.57;;
37305;SDS011;23193;42.656;21.170;2022-09-12T00:20:41;16.13;;;9.35;;
37305;SDS011;23193;42.656;21.170;2022-09-12T00:23:08;13.68;;;9.60;;
37305;SDS011;23193;42.656;21.170;2022-09-12T00:25:39;13.95;;;8.80;;
37305;SDS011;23193;42.656;21.170;2022-09-12T00:28:05;15.50;;;9.10;;
37305;SDS011;23193;42.656;21.170;2022-09-12T00:30:31;24.58;;;12.77;;
37305;SDS011;23193;42.656;21.170;2022-09-12T00:32:58;27.70;;;13.95;;
37305;SDS011;23193;42.656;21.170;2022-09-12T00:35:24;22.02;;;12.80;;
37305;SDS011;23193;42.656;21.170;2022-09-12T00:37:50;23.42;;;11.93;;
37305;SDS011;23193;42.656;21.170;2022-09-12T00:40:16;26.63;;;11.52;;
37305;SDS011;23193;42.656;21.170;2022-09-12T00:42:42;16.02;;;10.82;;
37305;SDS011;23193;42.656;21.170;2022-09-12T00:45:10;21.35;;;11.75;;
37305;SDS011;23193;42.656;21.170;2022-09-12T00:47:44;20.23;;;11.52;;
37305;SDS011;23193;42.656;21.170;2022-09-12T00:50:11;13.45;;;9.82;;
37305;SDS011;23193;42.656;21.170;2022-09-12T00:52:39;15.98;;;8.75;;
37305;SDS011;23193;42.656;21.170;2022-09-12T00:57:36;13.30;;;10.02;;
37305;SDS011;23193;42.656;21.170;2022-09-12T01:00:07;11.55;;;8.95;;
37305;SDS011;23193;42.656;21.170;2022-09-12T01:02:37;15.57;;;9.45;;
37305;SDS011;23193;42.656;21.170;2022-09-12T01:05:04;15.27;;;8.88;;
37305;SDS011;23193;42.656;21.170;2022-09-12T01:07:30;11.52;;;9.43;;
37305;SDS011;23193;42.656;21.170;2022-09-12T01:09:56;13.85;;;9.18;;
37305;SDS011;23193;42.656;21.170;2022-09-12T01:12:22;19.50;;;9.45;;
37305;SDS011;23193;42.656;21.170;2022-09-12T01:14:49;14.13;;;9.88;;
37305;SDS011;23193;42.656;21.170;2022-09-12T01:17:15;14.13;;;9.85;;
37305;SDS011;23193;42.656;21.170;2022-09-12T01:27:32;15.63;;;10.15;;
37305;SDS011;23193;42.656;21.170;2022-09-12T01:35:18;16.25;;;10.90;;
37305;SDS011;23193;42.656;21.170;2022-09-12T01:38:08;20.17;;;11.77;;
37305;SDS011;23193;42.656;21.170;2022-09-12T01:40:44;14.93;;;11.13;;
37305;SDS011;23193;42.656;21.170;2022-09-12T01:43:30;19.98;;;10.80;;
37305;SDS011;23193;42.656;21.170;2022-09-12T01:45:58;12.85;;;10.60;;
37305;SDS011;23193;42.656;21.170;2022-09-12T01:48:28;15.68;;;10.70;;
37305;SDS011;23193;42.656;21.170;2022-09-12T01:51:01;15.95;;;10.70;;
37305;SDS011;23193;42.656;21.170;2022-09-12T01:53:31;17.48;;;10.85;;
37305;SDS011;23193;42.656;21.170;2022-09-12T01:58:36;18.02;;;10.52;;
37305;SDS011;23193;42.656;21.170;2022-09-12T02:01:05;17.65;;;11.40;;
37305;SDS011;23193;42.656;21.170;2022-09-12T02:03:38;19.17;;;11.23;;
37305;SDS011;23193;42.656;21.170;2022-09-12T02:06:14;17.55;;;10.98;;
37305;SDS011;23193;42.656;21.170;2022-09-12T02:08:43;20.60;;;15.05;;
37305;SDS011;23193;42.656;21.170;2022-09-12T02:11:11;28.13;;;18.25;;
37305;SDS011;23193;42.656;21.170;2022-09-12T02:13:46;29.75;;;15.77;;
37305;SDS011;23193;42.656;21.170;2022-09-12T02:16:21;27.05;;;17.73;;
37305;SDS011;23193;42.656;21.170;2022-09-12T02:18:49;35.63;;;19.85;;
37305;SDS011;23193;42.656;21.170;2022-09-12T02:21:18;40.10;;;21.05;;
37305;SDS011;23193;42.656;21.170;2022-09-12T02:23:45;38.75;;;22.80;;
37305;SDS011;23193;42.656;21.170;2022-09-12T02:26:35;90.28;;;25.40;;
37305;SDS011;23193;42.656;21.170;2022-09-12T02:28:59;53.55;;;25.33;;
37305;SDS011;23193;42.656;21.170;2022-09-12T02:31:27;38.67;;;24.77;;
37305;SDS011;23193;42.656;21.170;2022-09-12T02:39:04;45.80;;;26.52;;
37305;SDS011;23193;42.656;21.170;2022-09-12T02:41:30;48.20;;;26.95;;
37305;SDS011;23193;42.656;21.170;2022-09-12T02:43:56;43.55;;;26.40;;
37305;SDS011;23193;42.656;21.170;2022-09-12T02:46:27;50.35;;;26.27;;
37305;SDS011;23193;42.656;21.170;2022-09-12T02:48:57;42.38;;;23.60;;
37305;SDS011;23193;42.656;21.170;2022-09-12T02:51:24;42.15;;;25.05;;
37305;SDS011;23193;42.656;21.170;2022-09-12T02:53:50;50.70;;;26.30;;
37305;SDS011;23193;42.656;21.170;2022-09-12T02:56:22;42.30;;;24.55;;
37305;SDS011;23193;42.656;21.170;2022-09-12T02:58:49;45.40;;;22.95;;
37305;SDS011;23193;42.656;21.170;2022-09-12T03:06:18;51.00;;;22.52;;
37305;SDS011;23193;42.656;21.170;2022-09-12T03:15:06;40.88;;;23.55;;
37305;SDS011;23193;42.656;21.170;2022-09-12T03:24:34;43.83;;;23.30;;
37305;SDS011;23193;42.656;21.170;2022-09-12T03:29:40;41.88;;;24.38;;
37305;SDS011;23193;42.656;21.170;2022-09-12T03:32:08;37.90;;;22.63;;
37305;SDS011;23193;42.656;21.170;2022-09-12T03:34:34;35.53;;;23.30;;
37305;SDS011;23193;42.656;21.170;2022-09-12T03:37:00;30.10;;;21.20;;
37305;SDS011;23193;42.656;21.170;2022-09-12T03:39:26;31.10;;;22.35;;
37305;SDS011;23193;42.656;21.170;2022-09-12T03:41:52;33.03;;;21.77;;
37305;SDS011;23193;42.656;21.170;2022-09-12T03:44:19;39.72;;;22.45;;
37305;SDS011;23193;42.656;21.170;2022-09-12T03:46:45;35.10;;;21.83;;
37305;SDS011;23193;42.656;21.170;2022-09-12T03:49:11;33.63;;;21.98;;
37305;SDS011;23193;42.656;21.170;2022-09-12T03:51:37;32.92;;;21.80;;
37305;SDS011;23193;42.656;21.170;2022-09-12T03:54:04;29.25;;;21.85;;
37305;SDS011;23193;42.656;21.170;2022-09-12T03:56:30;31.63;;;22.15;;
37305;SDS011;23193;42.656;21.170;2022-09-12T03:58:56;30.00;;;22.05;;
37305;SDS011;23193;42.656;21.170;2022-09-12T04:01:22;29.60;;;22.42;;
37305;SDS011;23193;42.656;21.170;2022-09-12T04:03:49;34.47;;;22.98;;
37305;SDS011;23193;42.656;21.170;2022-09-12T04:06:16;33.13;;;23.80;;
37305;SDS011;23193;42.656;21.170;2022-09-12T04:08:42;33.97;;;21.23;;
37305;SDS011;23193;42.656;21.170;2022-09-12T04:11:09;38.50;;;22.65;;
37305;SDS011;23193;42.656;21.170;2022-09-12T04:13:36;27.90;;;20.83;;
37305;SDS011;23193;42.656;21.170;2022-09-12T04:16:03;31.08;;;21.05;;
37305;SDS011;23193;42.656;21.170;2022-09-12T04:18:29;30.30;;;21.45;;
37305;SDS011;23193;42.656;21.170;2022-09-12T04:20:55;30.77;;;20.95;;
37305;SDS011;23193;42.656;21.170;2022-09-12T04:23:21;35.85;;;23.17;;
37305;SDS011;23193;42.656;21.170;2022-09-12T04:25:54;33.58;;;21.98;;
37305;SDS011;23193;42.656;21.170;2022-09-12T04:28:20;32.63;;;22.70;;
37305;SDS011;23193;42.656;21.170;2022-09-12T04:30:46;37.50;;;21.85;;
37305;SDS011;23193;42.656;21.170;2022-09-12T04:33:12;35.90;;;23.13;;
37305;SDS011;23193;42.656;21.170;2022-09-12T04:35:38;30.60;;;22.88;;
37305;SDS011;23193;42.656;21.170;2022-09-12T04:38:05;32.38;;;22.88;;
37305;SDS011;23193;42.656;21.170;2022-09-12T04:40:32;42.45;;;24.80;;
37305;SDS011;23193;42.656;21.170;2022-09-12T04:42:58;31.55;;;24.38;;
37305;SDS011;23193;42.656;21.170;2022-09-12T04:45:24;31.98;;;24.05;;
37305;SDS011;23193;42.656;21.170;2022-09-12T04:47:50;34.38;;;24.80;;
37305;SDS011;23193;42.656;21.170;2022-09-12T04:50:16;35.40;;;23.92;;
37305;SDS011;23193;42.656;21.170;2022-09-12T04:52:42;29.50;;;23.10;;
37305;SDS011;23193;42.656;21.170;2022-09-12T04:55:08;36.38;;;25.65;;
37305;SDS011;23193;42.656;21.170;2022-09-12T04:57:35;36.17;;;25.90;;
37305;SDS011;23193;42.656;21.170;2022-09-12T05:00:01;37.63;;;25.00;;
37305;SDS011;23193;42.656;21.170;2022-09-12T05:02:31;37.05;;;25.83;;
37305;SDS011;23193;42.656;21.170;2022-09-12T05:04:57;34.85;;;25.02;;
37305;SDS011;23193;42.656;21.170;2022-09-12T05:07:23;35.83;;;27.05;;
37305;SDS011;23193;42.656;21.170;2022-09-12T05:09:49;35.47;;;27.20;;
37305;SDS011;23193;42.656;21.170;2022-09-12T05:12:15;31.85;;;24.88;;
37305;SDS011;23193;42.656;21.170;2022-09-12T05:14:42;29.92;;;22.33;;
37305;SDS011;23193;42.656;21.170;2022-09-12T05:17:08;37.88;;;25.58;;
37305;SDS011;23193;42.656;21.170;2022-09-12T05:19:34;28.17;;;22.15;;
37305;SDS011;23193;42.656;21.170;2022-09-12T05:22:00;27.70;;;21.83;;
37305;SDS011;23193;42.656;21.170;2022-09-12T05:24:26;26.75;;;21.67;;
37305;SDS011;23193;42.656;21.170;2022-09-12T05:26:53;34.22;;;23.42;;
37305;SDS011;23193;42.656;21.170;2022-09-12T05:29:19;30.10;;;21.92;;
37305;SDS011;23193;42.656;21.170;2022-09-12T05:31:45;30.13;;;21.77;;
37305;SDS011;23193;42.656;21.170;2022-09-12T05:34:14;32.88;;;21.35;;
37305;SDS011;23193;42.656;21.170;2022-09-12T05:36:40;27.27;;;22.25;;
37305;SDS011;23193;42.656;21.170;2022-09-12T05:39:06;39.17;;;23.50;;
37305;SDS011;23193;42.656;21.170;2022-09-12T05:41:32;29.23;;;23.15;;
37305;SDS011;23193;42.656;21.170;2022-09-12T05:43:59;33.58;;;23.60;;
37305;SDS011;23193;42.656;21.170;2022-09-12T05:46:27;36.80;;;24.42;;
37305;SDS011;23193;42.656;21.170;2022-09-12T05:48:53;32.28;;;23.48;;
37305;SDS011;23193;42.656;21.170;2022-09-12T05:51:20;30.48;;;22.33;;
37305;SDS011;23193;42.656;21.170;2022-09-12T05:53:48;34.38;;;22.50;;
37305;SDS011;23193;42.656;21.170;2022-09-12T05:56:16;35.15;;;21.55;;
37305;SDS011;23193;42.656;21.170;2022-09-12T05:58:43;37.95;;;22.30;;
37305;SDS011;23193;42.656;21.170;2022-09-12T06:01:13;32.58;;;22.77;;
37305;SDS011;23193;42.656;21.170;2022-09-12T06:03:43;32.85;;;20.95;;
37305;SDS011;23193;42.656;21.170;2022-09-12T06:06:10;25.23;;;20.50;;
37305;SDS011;23193;42.656;21.170;2022-09-12T06:08:38;28.27;;;21.10;;
37305;SDS011;23193;42.656;21.170;2022-09-12T06:11:04;35.58;;;20.88;;
37305;SDS011;23193;42.656;21.170;2022-09-12T06:13:31;23.63;;;19.83;;
37305;SDS011;23193;42.656;21.170;2022-09-12T06:16:02;30.05;;;20.13;;
37305;SDS011;23193;42.656;21.170;2022-09-12T06:18:28;34.20;;;21.23;;
37305;SDS011;23193;42.656;21.170;2022-09-12T06:20:54;33.80;;;24.63;;
37305;SDS011;23193;42.656;21.170;2022-09-12T06:23:20;32.20;;;24.58;;
37305;SDS011;23193;42.656;21.170;2022-09-12T06:25:47;30.92;;;23.13;;
37305;SDS011;23193;42.656;21.170;2022-09-12T06:28:14;26.88;;;22.35;;
37305;SDS011;23193;42.656;21.170;2022-09-12T06:30:40;26.85;;;21.38;;
37305;SDS011;23193;42.656;21.170;2022-09-12T06:33:07;26.13;;;20.50;;
37305;SDS011;23193;42.656;21.170;2022-09-12T06:35:36;27.55;;;21.25;;
37305;SDS011;23193;42.656;21.170;2022-09-12T06:38:02;27.80;;;20.05;;
37305;SDS011;23193;42.656;21.170;2022-09-12T06:40:29;28.00;;;20.75;;
37305;SDS011;23193;42.656;21.170;2022-09-12T06:42:55;23.98;;;20.30;;
37305;SDS011;23193;42.656;21.170;2022-09-12T06:45:21;25.17;;;20.17;;
37305;SDS011;23193;42.656;21.170;2022-09-12T06:47:47;33.92;;;21.25;;
37305;SDS011;23193;42.656;21.170;2022-09-12T06:50:13;26.42;;;20.83;;
37305;SDS011;23193;42.656;21.170;2022-09-12T06:52:39;26.15;;;20.90;;
37305;SDS011;23193;42.656;21.170;2022-09-12T06:55:05;30.48;;;23.17;;
37305;SDS011;23193;42.656;21.170;2022-09-12T06:57:31;41.75;;;25.08;;
37305;SDS011;23193;42.656;21.170;2022-09-12T07:00:01;44.30;;;29.02;;
37305;SDS011;23193;42.656;21.170;2022-09-12T07:02:28;43.58;;;28.30;;
37305;SDS011;23193;42.656;21.170;2022-09-12T07:04:54;35.65;;;24.85;;
37305;SDS011;23193;42.656;21.170;2022-09-12T07:07:20;29.73;;;24.40;;
37305;SDS011;23193;42.656;21.170;2022-09-12T07:09:47;35.15;;;23.52;;
37305;SDS011;23193;42.656;21.170;2022-09-12T07:12:13;32.25;;;21.95;;
37305;SDS011;23193;42.656;21.170;2022-09-12T07:14:39;26.80;;;19.65;;
37305;SDS011;23193;42.656;21.170;2022-09-12T07:17:06;24.55;;;16.27;;
37305;SDS011;23193;42.656;21.170;2022-09-12T07:19:32;26.42;;;15.88;;
37305;SDS011;23193;42.656;21.170;2022-09-12T07:21:59;23.05;;;16.65;;
37305;SDS011;23193;42.656;21.170;2022-09-12T07:24:25;27.38;;;16.77;;
37305;SDS011;23193;42.656;21.170;2022-09-12T07:26:51;24.13;;;15.80;;
37305;SDS011;23193;42.656;21.170;2022-09-12T07:29:17;22.98;;;15.82;;
37305;SDS011;23193;42.656;21.170;2022-09-12T07:31:44;29.70;;;15.15;;
37305;SDS011;23193;42.656;21.170;2022-09-12T07:34:10;23.33;;;15.63;;
37305;SDS011;23193;42.656;21.170;2022-09-12T07:36:36;20.40;;;14.73;;
37305;SDS011;23193;42.656;21.170;2022-09-12T07:39:03;17.25;;;14.60;;
37305;SDS011;23193;42.656;21.170;2022-09-12T07:41:30;20.42;;;15.15;;
37305;SDS011;23193;42.656;21.170;2022-09-12T07:43:58;18.83;;;15.05;;
37305;SDS011;23193;42.656;21.170;2022-09-12T07:46:25;20.92;;;14.77;;
37305;SDS011;23193;42.656;21.170;2022-09-12T07:48:51;17.75;;;14.45;;
37305;SDS011;23193;42.656;21.170;2022-09-12T07:51:18;22.17;;;15.52;;
37305;SDS011;23193;42.656;21.170;2022-09-12T07:53:44;21.90;;;15.02;;
37305;SDS011;23193;42.656;21.170;2022-09-12T07:56:11;19.38;;;14.23;;
37305;SDS011;23193;42.656;21.170;2022-09-12T07:58:38;14.70;;;12.55;;
37305;SDS011;23193;42.656;21.170;2022-09-12T08:01:10;22.45;;;15.10;;
37305;SDS011;23193;42.656;21.170;2022-09-12T08:08:33;23.52;;;13.45;;
37305;SDS011;23193;42.656;21.170;2022-09-12T08:10:59;17.92;;;11.73;;
37305;SDS011;23193;42.656;21.170;2022-09-12T08:13:29;12.85;;;10.82;;
37305;SDS011;23193;42.656;21.170;2022-09-12T08:15:58;16.88;;;11.00;;
37305;SDS011;23193;42.656;21.170;2022-09-12T08:18:27;22.80;;;12.07;;
37305;SDS011;23193;42.656;21.170;2022-09-12T08:20:58;20.73;;;11.82;;
37305;SDS011;23193;42.656;21.170;2022-09-12T08:23:24;15.43;;;11.07;;
37305;SDS011;23193;42.656;21.170;2022-09-12T08:25:56;14.45;;;11.40;;
37305;SDS011;23193;42.656;21.170;2022-09-12T08:28:23;16.67;;;10.65;;
37305;SDS011;23193;42.656;21.170;2022-09-12T08:30:49;13.50;;;9.48;;
37305;SDS011;23193;42.656;21.170;2022-09-12T08:33:15;10.38;;;8.60;;
37305;SDS011;23193;42.656;21.170;2022-09-12T08:35:41;12.52;;;9.10;;
37305;SDS011;23193;42.656;21.170;2022-09-12T08:38:07;19.17;;;10.02;;
37305;SDS011;23193;42.656;21.170;2022-09-12T08:40:40;11.18;;;7.70;;
37305;SDS011;23193;42.656;21.170;2022-09-12T08:43:12;12.45;;;7.38;;
37305;SDS011;23193;42.656;21.170;2022-09-12T08:45:42;16.13;;;9.25;;
37305;SDS011;23193;42.656;21.170;2022-09-12T08:48:10;12.18;;;7.68;;
37305;SDS011;23193;42.656;21.170;2022-09-12T08:50:37;10.43;;;7.20;;
37305;SDS011;23193;42.656;21.170;2022-09-12T08:53:11;14.52;;;7.70;;
37305;SDS011;23193;42.656;21.170;2022-09-12T08:55:45;11.63;;;7.85;;
37305;SDS011;23193;42.656;21.170;2022-09-12T08:58:19;8.48;;;7.22;;
37305;SDS011;23193;42.656;21.170;2022-09-12T09:06:09;8.40;;;4.63;;
37305;SDS011;23193;42.656;21.170;2022-09-12T09:08:45;7.22;;;4.07;;
37305;SDS011;23193;42.656;21.170;2022-09-12T09:16:32;5.30;;;4.70;;
37305;SDS011;23193;42.656;21.170;2022-09-12T09:19:00;9.23;;;4.57;;
37305;SDS011;23193;42.656;21.170;2022-09-12T09:21:41;10.27;;;3.63;;
37305;SDS011;23193;42.656;21.170;2022-09-12T09:24:12;4.40;;;3.22;;
37305;SDS011;23193;42.656;21.170;2022-09-12T09:26:42;8.25;;;3.03;;
37305;SDS011;23193;42.656;21.170;2022-09-12T09:29:13;4.40;;;2.93;;
37305;SDS011;23193;42.656;21.170;2022-09-12T09:31:41;5.90;;;3.43;;
37305;SDS011;23193;42.656;21.170;2022-09-12T09:34:14;6.13;;;3.90;;
37305;SDS011;23193;42.656;21.170;2022-09-12T09:36:47;4.32;;;3.75;;
37305;SDS011;23193;42.656;21.170;2022-09-12T09:44:26;2.70;;;2.00;;
37305;SDS011;23193;42.656;21.170;2022-09-12T09:46:53;3.88;;;1.80;;
37305;SDS011;23193;42.656;21.170;2022-09-12T09:49:20;2.45;;;1.98;;
37305;SDS011;23193;42.656;21.170;2022-09-12T09:51:46;5.07;;;2.78;;
37305;SDS011;23193;42.656;21.170;2022-09-12T09:54:17;6.28;;;2.30;;
37305;SDS011;23193;42.656;21.170;2022-09-12T09:56:45;6.65;;;2.03;;
37305;SDS011;23193;42.656;21.170;2022-09-12T10:01:52;8.27;;;5.97;;
37305;SDS011;23193;42.656;21.170;2022-09-12T10:04:21;8.00;;;1.83;;
37305;SDS011;23193;42.656;21.170;2022-09-12T10:06:49;7.05;;;3.40;;
37305;SDS011;23193;42.656;21.170;2022-09-12T10:09:20;2.30;;;2.03;;
37305;SDS011;23193;42.656;21.170;2022-09-12T10:11:47;2.00;;;1.80;;
37305;SDS011;23193;42.656;21.170;2022-09-12T10:16:59;3.97;;;2.08;;
37305;SDS011;23193;42.656;21.170;2022-09-12T10:19:38;6.55;;;2.92;;
37305;SDS011;23193;42.656;21.170;2022-09-12T10:22:04;4.38;;;2.40;;
37305;SDS011;23193;42.656;21.170;2022-09-12T10:29:31;3.88;;;2.70;;
37305;SDS011;23193;42.656;21.170;2022-09-12T10:31:58;7.38;;;3.08;;
37305;SDS011;23193;42.656;21.170;2022-09-12T10:34:30;11.88;;;3.10;;
37305;SDS011;23193;42.656;21.170;2022-09-12T10:37:09;3.63;;;3.00;;
37305;SDS011;23193;42.656;21.170;2022-09-12T10:39:40;7.60;;;2.80;;
37305;SDS011;23193;42.656;21.170;2022-09-12T10:42:11;3.40;;;2.67;;
37305;SDS011;23193;42.656;21.170;2022-09-12T10:44:39;6.70;;;3.40;;
37305;SDS011;23193;42.656;21.170;2022-09-12T10:47:21;5.60;;;3.70;;
37305;SDS011;23193;42.656;21.170;2022-09-12T10:49:48;11.32;;;3.72;;
37305;SDS011;23193;42.656;21.170;2022-09-12T10:52:23;6.72;;;2.75;;
37305;SDS011;23193;42.656;21.170;2022-09-12T10:54:50;3.58;;;2.95;;
37305;SDS011;23193;42.656;21.170;2022-09-12T11:05:13;2.97;;;2.33;;
37305;SDS011;23193;42.656;21.170;2022-09-12T11:07:41;5.15;;;2.28;;
37305;SDS011;23193;42.656;21.170;2022-09-12T11:17:49;3.58;;;2.78;;
37305;SDS011;23193;42.656;21.170;2022-09-12T11:25:27;5.65;;;2.88;;
37305;SDS011;23193;42.656;21.170;2022-09-12T11:30:48;6.03;;;2.88;;
37305;SDS011;23193;42.656;21.170;2022-09-12T11:41:08;5.13;;;3.08;;
37305;SDS011;23193;42.656;21.170;2022-09-12T11:46:36;3.90;;;2.40;;
37305;SDS011;23193;42.656;21.170;2022-09-12T11:51:27;3.72;;;2.30;;
37305;SDS011;23193;42.656;21.170;2022-09-12T11:54:05;4.03;;;2.53;;
37305;SDS011;23193;42.656;21.170;2022-09-12T11:56:34;3.72;;;2.47;;
37305;SDS011;23193;42.656;21.170;2022-09-12T11:59:03;3.40;;;2.38;;
37305;SDS011;23193;42.656;21.170;2022-09-12T12:01:42;6.40;;;2.58;;
37305;SDS011;23193;42.656;21.170;2022-09-12T12:04:10;3.22;;;2.22;;
37305;SDS011;23193;42.656;21.170;2022-09-12T12:07:00;2.95;;;2.47;;
37305;SDS011;23193;42.656;21.170;2022-09-12T12:09:26;2.90;;;2.40;;
37305;SDS011;23193;42.656;21.170;2022-09-12T12:11:54;4.18;;;2.22;;
37305;SDS011;23193;42.656;21.170;2022-09-12T12:14:43;4.05;;;2.38;;
37305;SDS011;23193;42.656;21.170;2022-09-12T12:17:15;2.72;;;2.08;;
37305;SDS011;23193;42.656;21.170;2022-09-12T12:19:42;10.23;;;3.10;;
37305;SDS011;23193;42.656;21.170;2022-09-12T12:22:13;5.28;;;2.20;;
37305;SDS011;23193;42.656;21.170;2022-09-12T12:27:44;7.10;;;2.00;;
37305;SDS011;23193;42.656;21.170;2022-09-12T12:40:53;3.00;;;2.05;;
37305;SDS011;23193;42.656;21.170;2022-09-12T12:43:30;4.70;;;1.83;;
37305;SDS011;23193;42.656;21.170;2022-09-12T12:46:03;4.40;;;1.95;;
37305;SDS011;23193;42.656;21.170;2022-09-12T12:48:30;10.88;;;3.15;;
37305;SDS011;23193;42.656;21.170;2022-09-12T12:53:41;3.38;;;1.90;;
37305;SDS011;23193;42.656;21.170;2022-09-12T12:56:23;8.50;;;2.28;;
37305;SDS011;23193;42.656;21.170;2022-09-12T12:58:56;3.08;;;2.10;;
37305;SDS011;23193;42.656;21.170;2022-09-12T13:01:23;4.53;;;2.38;;
37305;SDS011;23193;42.656;21.170;2022-09-12T13:06:32;3.65;;;2.47;;
37305;SDS011;23193;42.656;21.170;2022-09-12T13:09:03;9.45;;;2.65;;
37305;SDS011;23193;42.656;21.170;2022-09-12T13:11:35;7.13;;;2.35;;
37305;SDS011;23193;42.656;21.170;2022-09-12T13:14:06;4.68;;;1.90;;
37305;SDS011;23193;42.656;21.170;2022-09-12T13:16:37;2.80;;;1.90;;
37305;SDS011;23193;42.656;21.170;2022-09-12T13:19:10;3.23;;;1.90;;
37305;SDS011;23193;42.656;21.170;2022-09-12T13:21:36;4.35;;;2.20;;
37305;SDS011;23193;42.656;21.170;2022-09-12T13:24:04;2.28;;;1.98;;
37305;SDS011;23193;42.656;21.170;2022-09-12T13:26:34;5.38;;;1.98;;
37305;SDS011;23193;42.656;21.170;2022-09-12T13:29:21;3.22;;;2.20;;
37305;SDS011;23193;42.656;21.170;2022-09-12T13:31:57;3.05;;;2.20;;
37305;SDS011;23193;42.656;21.170;2022-09-12T13:34:30;3.10;;;1.83;;
37305;SDS011;23193;42.656;21.170;2022-09-12T13:44:44;2.30;;;1.73;;
37305;SDS011;23193;42.656;21.170;2022-09-12T13:47:15;5.47;;;2.17;;
37305;SDS011;23193;42.656;21.170;2022-09-12T13:49:43;5.22;;;2.30;;
37305;SDS011;23193;42.656;21.170;2022-09-12T13:52:15;3.10;;;2.10;;
37305;SDS011;23193;42.656;21.170;2022-09-12T13:54:42;3.53;;;2.38;;
37305;SDS011;23193;42.656;21.170;2022-09-12T13:57:23;8.48;;;1.95;;
37305;SDS011;23193;42.656;21.170;2022-09-12T13:59:53;6.60;;;2.63;;
37305;SDS011;23193;42.656;21.170;2022-09-12T14:02:20;7.72;;;2.80;;
37305;SDS011;23193;42.656;21.170;2022-09-12T14:04:47;7.15;;;2.47;;
37305;SDS011;23193;42.656;21.170;2022-09-12T14:07:33;7.97;;;2.35;;
37305;SDS011;23193;42.656;21.170;2022-09-12T14:10:03;5.75;;;2.05;;
37305;SDS011;23193;42.656;21.170;2022-09-12T14:12:30;10.20;;;3.78;;
37305;SDS011;23193;42.656;21.170;2022-09-12T14:14:59;2.95;;;2.40;;
37305;SDS011;23193;42.656;21.170;2022-09-12T14:17:35;6.35;;;2.22;;
37305;SDS011;23193;42.656;21.170;2022-09-12T14:20:21;3.13;;;2.05;;
37305;SDS011;23193;42.656;21.170;2022-09-12T14:22:49;2.22;;;2.00;;
37305;SDS011;23193;42.656;21.170;2022-09-12T14:25:17;2.72;;;1.88;;
37305;SDS011;23193;42.656;21.170;2022-09-12T14:27:47;3.67;;;2.50;;
37305;SDS011;23193;42.656;21.170;2022-09-12T14:33:11;3.25;;;2.10;;
37305;SDS011;23193;42.656;21.170;2022-09-12T14:35:43;2.35;;;1.92;;
37305;SDS011;23193;42.656;21.170;2022-09-12T14:40:39;6.80;;;2.47;;
37305;SDS011;23193;42.656;21.170;2022-09-12T14:43:13;5.13;;;2.78;;
37305;SDS011;23193;42.656;21.170;2022-09-12T14:45:41;2.70;;;2.50;;
37305;SDS011;23193;42.656;21.170;2022-09-12T14:48:12;4.53;;;1.92;;
37305;SDS011;23193;42.656;21.170;2022-09-12T14:50:43;6.13;;;2.25;;
37305;SDS011;23193;42.656;21.170;2022-09-12T14:55:43;5.32;;;2.08;;
37305;SDS011;23193;42.656;21.170;2022-09-12T14:58:13;8.32;;;2.45;;
37305;SDS011;23193;42.656;21.170;2022-09-12T15:03:24;4.15;;;2.00;;
37305;SDS011;23193;42.656;21.170;2022-09-12T15:05:51;2.72;;;1.92;;
37305;SDS011;23193;42.656;21.170;2022-09-12T15:08:17;8.18;;;2.42;;
37305;SDS011;23193;42.656;21.170;2022-09-12T15:10:43;4.78;;;2.50;;
37305;SDS011;23193;42.656;21.170;2022-09-12T15:15:39;7.80;;;2.72;;
37305;SDS011;23193;42.656;21.170;2022-09-12T15:18:05;5.93;;;1.90;;
37305;SDS011;23193;42.656;21.170;2022-09-12T15:20:35;6.03;;;2.47;;
37305;SDS011;23193;42.656;21.170;2022-09-12T15:23:03;6.18;;;2.63;;
37305;SDS011;23193;42.656;21.170;2022-09-12T15:25:30;5.70;;;2.58;;
37305;SDS011;23193;42.656;21.170;2022-09-12T15:27:56;6.40;;;2.60;;
37305;SDS011;23193;42.656;21.170;2022-09-12T15:30:22;8.98;;;3.47;;
37305;SDS011;23193;42.656;21.170;2022-09-12T15:32:48;8.15;;;3.80;;
37305;SDS011;23193;42.656;21.170;2022-09-12T15:35:17;4.32;;;2.22;;
37305;SDS011;23193;42.656;21.170;2022-09-12T15:37:43;5.53;;;2.70;;
37305;SDS011;23193;42.656;21.170;2022-09-12T15:40:11;5.85;;;3.40;;
37305;SDS011;23193;42.656;21.170;2022-09-12T15:42:37;6.40;;;2.20;;
37305;SDS011;23193;42.656;21.170;2022-09-12T15:45:36;6.60;;;2.38;;
37305;SDS011;23193;42.656;21.170;2022-09-12T15:47:56;7.07;;;2.95;;
37305;SDS011;23193;42.656;21.170;2022-09-12T15:50:22;3.95;;;2.35;;
37305;SDS011;23193;42.656;21.170;2022-09-12T15:52:48;4.55;;;2.95;;
37305;SDS011;23193;42.656;21.170;2022-09-12T15:55:21;6.78;;;2.67;;
37305;SDS011;23193;42.656;21.170;2022-09-12T15:57:48;8.85;;;2.50;;
37305;SDS011;23193;42.656;21.170;2022-09-12T16:00:14;4.28;;;2.42;;
37305;SDS011;23193;42.656;21.170;2022-09-12T16:02:41;3.95;;;2.60;;
37305;SDS011;23193;42.656;21.170;2022-09-12T16:05:10;5.72;;;2.92;;
37305;SDS011;23193;42.656;21.170;2022-09-12T16:07:38;4.95;;;3.05;;
37305;SDS011;23193;42.656;21.170;2022-09-12T16:10:04;5.18;;;2.80;;
37305;SDS011;23193;42.656;21.170;2022-09-12T16:12:30;5.72;;;3.40;;
37305;SDS011;23193;42.656;21.170;2022-09-12T16:14:56;12.75;;;3.10;;
37305;SDS011;23193;42.656;21.170;2022-09-12T16:17:22;13.02;;;3.97;;
37305;SDS011;23193;42.656;21.170;2022-09-12T16:19:48;10.32;;;4.05;;
37305;SDS011;23193;42.656;21.170;2022-09-12T16:22:14;8.38;;;4.32;;
37305;SDS011;23193;42.656;21.170;2022-09-12T16:24:40;6.78;;;3.70;;
37305;SDS011;23193;42.656;21.170;2022-09-12T16:27:06;12.75;;;3.90;;
37305;SDS011;23193;42.656;21.170;2022-09-12T16:29:32;5.47;;;3.00;;
37305;SDS011;23193;42.656;21.170;2022-09-12T16:31:58;4.95;;;2.97;;
37305;SDS011;23193;42.656;21.170;2022-09-12T16:34:24;5.55;;;3.20;;
37305;SDS011;23193;42.656;21.170;2022-09-12T16:36:51;11.95;;;3.10;;
37305;SDS011;23193;42.656;21.170;2022-09-12T16:39:17;6.65;;;3.17;;
37305;SDS011;23193;42.656;21.170;2022-09-12T16:41:43;7.47;;;3.55;;
37305;SDS011;23193;42.656;21.170;2022-09-12T16:44:09;6.25;;;4.05;;
37305;SDS011;23193;42.656;21.170;2022-09-12T16:46:35;7.00;;;3.72;;
37305;SDS011;23193;42.656;21.170;2022-09-12T16:49:01;9.02;;;3.45;;
37305;SDS011;23193;42.656;21.170;2022-09-12T16:51:31;6.07;;;3.67;;
37305;SDS011;23193;42.656;21.170;2022-09-12T16:53:59;4.03;;;2.97;;
37305;SDS011;23193;42.656;21.170;2022-09-12T16:56:25;8.20;;;3.15;;
37305;SDS011;23193;42.656;21.170;2022-09-12T16:58:52;4.68;;;3.50;;
37305;SDS011;23193;42.656;21.170;2022-09-12T17:01:19;4.63;;;3.20;;